Denver, Colorado
Traffic Map
Current Weather Conditions
Denver, Colorado
Clear
Clear
57°
Feels Like: 57°
Wind Chill: 57° Ceiling: Unl
Heat Index: 57° Visibility: 10mi
Dew Point: 36° Wind: 7mph
Humidity: 45% Direction: 210° (SSW)
Pressure: 30.17in Gusts: 0mph
Raw Report DataKBKF 051358Z AUTO 21006KT 10SM CLR 14/02 A3017 RMK AO2 SLP164 T01400021
Traffic Incident Summary
Active as of:
Severity:
Category:
InformationThere was an issue retrieving the traffic information for this location. Please try a different location or try again shortly.
Advertisements
Track Severe Weather on mobile